createdAt,value
2023-04-19T00:02:13.938Z,35.50
2023-04-19T00:04:41.938Z,35.53
2023-04-19T00:07:08.842Z,36.12
2023-04-19T00:09:35.612Z,35.86
2023-04-19T00:12:03.227Z,35.55
2023-04-19T00:14:30.046Z,35.76
2023-04-19T00:16:56.985Z,35.66
2023-04-19T00:19:23.739Z,35.33
2023-04-19T00:21:50.819Z,35.57
2023-04-19T00:24:18.171Z,35.48
2023-04-19T00:26:44.909Z,35.13
2023-04-19T00:29:11.843Z,35.60
2023-04-19T00:31:39.966Z,35.40
2023-04-19T00:34:07.222Z,35.58
2023-04-19T00:36:34.124Z,35.71
2023-04-19T00:39:01.093Z,35.55
2023-04-19T00:41:27.814Z,35.56
2023-04-19T00:43:54.724Z,35.70
2023-04-19T00:46:22.006Z,35.58
2023-04-19T00:48:48.958Z,35.72
2023-04-19T00:51:16.023Z,36.04
2023-04-19T00:53:43.062Z,36.09
2023-04-19T00:56:09.903Z,36.27
2023-04-19T00:58:38.055Z,36.27
2023-04-19T01:01:04.843Z,35.95
2023-04-19T01:03:31.830Z,36.08
2023-04-19T01:05:58.816Z,36.13
2023-04-19T01:08:25.663Z,36.56
2023-04-19T01:10:52.406Z,36.87
2023-04-19T01:13:19.221Z,37.02
2023-04-19T01:15:46.252Z,36.81
2023-04-19T01:18:14.158Z,37.09
2023-04-19T01:20:41.120Z,37.38
2023-04-19T01:23:11.787Z,37.57
2023-04-19T01:25:39.192Z,37.74
2023-04-19T01:28:06.498Z,38.36
2023-04-19T01:30:33.322Z,38.51
2023-04-19T01:33:00.244Z,38.92
2023-04-19T01:35:27.179Z,38.91
2023-04-19T01:37:56.344Z,39.61
2023-04-19T01:40:24.957Z,39.92
2023-04-19T01:42:51.997Z,39.94
2023-04-19T01:45:18.837Z,40.12
2023-04-19T01:47:45.630Z,40.36
2023-04-19T01:50:12.428Z,40.29
2023-04-19T01:52:39.238Z,40.29
2023-04-19T01:55:06.188Z,40.62
2023-04-19T01:57:32.999Z,40.64
2023-04-19T01:59:59.857Z,40.61
2023-04-19T02:02:27.164Z,40.46
2023-04-19T02:04:54.236Z,40.43
2023-04-19T02:07:21.102Z,40.66
2023-04-19T02:09:48.041Z,40.63
2023-04-19T02:12:14.919Z,41.01
2023-04-19T02:14:41.803Z,41.00
2023-04-19T02:17:08.659Z,41.51
2023-04-19T02:19:35.507Z,41.59
2023-04-19T02:22:02.251Z,42.27
2023-04-19T02:24:28.971Z,42.35
2023-04-19T02:26:55.831Z,42.11
2023-04-19T02:29:22.730Z,42.01
2023-04-19T02:31:50.290Z,42.36
2023-04-19T02:34:17.380Z,42.57
2023-04-19T02:36:44.354Z,42.68
2023-04-19T02:39:11.073Z,42.55
2023-04-19T02:41:46.999Z,43.07
2023-04-19T02:44:13.788Z,42.92
2023-04-19T02:46:40.888Z,43.08
2023-04-19T02:49:07.772Z,43.07
2023-04-19T02:51:34.546Z,42.81
2023-04-19T02:54:01.342Z,43.19
2023-04-19T02:56:28.268Z,43.26
2023-04-19T02:58:55.242Z,42.97
2023-04-19T03:01:22.110Z,42.89
2023-04-19T03:03:49.234Z,43.18
2023-04-19T03:06:17.059Z,42.97
2023-04-19T03:08:43.851Z,43.25
2023-04-19T03:11:11.783Z,43.27
2023-04-19T03:13:39.830Z,43.39
2023-04-19T03:16:07.410Z,43.71
2023-04-19T03:18:34.482Z,43.94
2023-04-19T03:21:03.563Z,43.83
2023-04-19T03:23:30.326Z,44.42
2023-04-19T03:25:57.457Z,44.85
2023-04-19T03:28:24.194Z,45.11
2023-04-19T03:30:50.937Z,44.91
2023-04-19T03:33:18.878Z,44.85
2023-04-19T03:35:45.845Z,44.83
2023-04-19T03:38:12.627Z,44.95
2023-04-19T03:40:39.407Z,45.15
2023-04-19T03:43:06.133Z,45.00
2023-04-19T03:45:32.896Z,44.91
2023-04-19T03:48:01.387Z,44.84
2023-04-19T03:50:29.633Z,44.75
2023-04-19T03:52:56.748Z,44.50
2023-04-19T03:55:23.593Z,44.40
2023-04-19T03:57:50.423Z,44.19
2023-04-19T04:00:18.602Z,44.46
2023-04-19T04:02:45.680Z,44.38
2023-04-19T04:05:12.789Z,44.25
2023-04-19T04:07:39.799Z,44.12
2023-04-19T04:10:07.289Z,44.37
2023-04-19T04:12:34.029Z,44.02
2023-04-19T04:15:01.037Z,44.23
2023-04-19T04:17:27.816Z,44.07
2023-04-19T04:19:54.646Z,44.06
2023-04-19T04:22:21.714Z,44.24
2023-04-19T04:24:49.333Z,44.09
2023-04-19T04:27:20.469Z,44.03
2023-04-19T04:29:47.656Z,44.07
2023-04-19T04:32:15.731Z,43.89
2023-04-19T04:34:43.156Z,44.30
2023-04-19T04:37:10.061Z,44.55
2023-04-19T04:39:39.456Z,44.93
2023-04-19T04:42:08.929Z,45.26
2023-04-19T04:44:36.444Z,45.44
2023-04-19T04:47:03.300Z,45.68
2023-04-19T04:49:30.588Z,45.72
2023-04-19T04:51:57.384Z,45.92
2023-04-19T04:54:24.775Z,46.30
2023-04-19T04:56:51.779Z,46.60
2023-04-19T04:59:19.158Z,47.11
2023-04-19T05:01:46.380Z,47.12
2023-04-19T05:04:13.293Z,47.09
2023-04-19T05:06:41.529Z,47.11
2023-04-19T05:09:08.350Z,46.85
2023-04-19T05:11:35.114Z,47.06
2023-04-19T05:14:02.756Z,47.00
2023-04-19T05:16:29.666Z,47.36
2023-04-19T05:18:56.685Z,47.26
2023-04-19T05:21:23.649Z,47.41
2023-04-19T05:23:53.923Z,47.63
2023-04-19T05:26:20.756Z,47.45
2023-04-19T05:28:47.743Z,47.33
2023-04-19T05:31:14.678Z,47.46
2023-04-19T05:33:41.664Z,47.51
2023-04-19T05:36:09.051Z,47.91
2023-04-19T05:38:35.960Z,48.00
2023-04-19T05:41:03.747Z,48.18
2023-04-19T05:43:30.742Z,48.43
2023-04-19T05:45:57.930Z,48.51
2023-04-19T05:48:25.641Z,48.44
2023-04-19T05:50:57.666Z,48.31
2023-04-19T05:53:24.389Z,48.36
2023-04-19T05:55:52.323Z,48.26
2023-04-19T05:58:19.453Z,48.31
2023-04-19T06:00:48.813Z,48.46
2023-04-19T06:03:16.189Z,48.25
2023-04-19T06:05:43.550Z,48.33
2023-04-19T06:08:10.343Z,48.46
2023-04-19T06:13:16.081Z,49.47
2023-04-19T06:15:43.002Z,49.80
2023-04-19T06:18:10.416Z,50.22
2023-04-19T06:20:46.568Z,50.40
2023-04-19T06:23:15.060Z,50.25
2023-04-19T06:25:42.000Z,50.67
2023-04-19T06:28:08.998Z,50.49
2023-04-19T06:30:35.758Z,50.55
2023-04-19T06:33:02.614Z,50.08
2023-04-19T06:35:29.721Z,49.80
2023-04-19T06:37:56.477Z,49.49
2023-04-19T06:40:23.347Z,49.43
2023-04-19T06:42:50.230Z,49.17
2023-04-19T06:45:17.099Z,48.50
2023-04-19T06:47:44.002Z,48.17
2023-04-19T06:50:11.430Z,48.06
2023-04-19T06:52:38.895Z,47.75
2023-04-19T06:55:07.258Z,47.70
2023-04-19T06:57:34.139Z,47.25
2023-04-19T07:00:01.182Z,47.03
2023-04-19T07:02:28.062Z,46.74
2023-04-19T07:04:55.258Z,46.56
2023-04-19T07:07:22.095Z,46.04
2023-04-19T07:09:48.787Z,45.61
2023-04-19T07:12:15.675Z,45.26
2023-04-19T07:14:42.424Z,45.24
2023-04-19T07:17:09.158Z,44.74
2023-04-19T07:19:36.583Z,44.29
2023-04-19T07:22:03.741Z,43.98
2023-04-19T07:24:30.542Z,43.64
2023-04-19T07:26:57.829Z,43.62
2023-04-19T07:29:24.674Z,43.98
2023-04-19T07:31:51.600Z,44.15
2023-04-19T07:34:18.643Z,44.13
2023-04-19T07:36:45.503Z,43.21
2023-04-19T07:39:13.673Z,43.15
2023-04-19T07:41:40.653Z,42.75
2023-04-19T07:44:07.447Z,42.06
2023-04-19T07:46:34.480Z,42.50
2023-04-19T07:49:01.592Z,42.57
2023-04-19T07:51:28.517Z,42.82
2023-04-19T07:53:55.563Z,42.06
2023-04-19T07:56:22.483Z,41.18
2023-04-19T07:59:04.487Z,40.20
2023-04-19T08:01:35.170Z,39.49
2023-04-19T08:04:02.139Z,39.51
2023-04-19T08:06:30.741Z,39.67
2023-04-19T08:08:57.815Z,39.62
2023-04-19T08:11:25.539Z,39.92
2023-04-19T08:14:06.190Z,39.89
2023-04-19T08:19:05.718Z,39.37
2023-04-19T08:21:40.645Z,39.27
2023-04-19T08:24:08.425Z,39.33
2023-04-19T08:26:35.571Z,39.24
2023-04-19T08:29:02.562Z,39.80
2023-04-19T08:31:29.553Z,39.50
2023-04-19T08:33:57.148Z,39.64
2023-04-19T08:36:35.939Z,39.66
2023-04-19T08:39:12.525Z,39.94
2023-04-19T08:41:48.086Z,39.13
2023-04-19T08:44:25.337Z,38.72
2023-04-19T08:47:01.303Z,37.70
2023-04-19T08:49:28.669Z,37.21
2023-04-19T08:51:55.848Z,36.92
2023-04-19T08:54:22.583Z,37.41
2023-04-19T08:56:49.499Z,36.82
2023-04-19T08:59:19.674Z,35.93
2023-04-19T09:01:47.014Z,35.70
2023-04-19T09:04:31.749Z,35.81
2023-04-19T09:07:00.896Z,35.27
2023-04-19T09:09:37.258Z,35.78
2023-04-19T09:12:18.401Z,35.52
2023-04-19T09:17:17.205Z,34.89
2023-04-19T09:19:48.504Z,34.82
2023-04-19T09:22:15.384Z,34.73
2023-04-19T09:27:12.595Z,33.79
2023-04-19T09:29:39.804Z,33.88
2023-04-19T09:32:06.712Z,34.18
2023-04-19T09:34:33.719Z,34.21
2023-04-19T09:37:22.808Z,33.98
2023-04-19T09:39:59.833Z,34.24
2023-04-19T09:43:05.441Z,34.14
2023-04-19T09:45:46.086Z,33.80
2023-04-19T09:48:13.378Z,33.43
2023-04-19T09:50:59.016Z,33.98
2023-04-19T09:53:48.636Z,33.83
2023-04-19T09:56:15.494Z,34.10
2023-04-19T09:58:49.623Z,34.36
2023-04-19T10:01:19.472Z,34.34
2023-04-19T10:03:46.795Z,34.53
2023-04-19T10:06:40.004Z,35.13
2023-04-19T10:09:04.568Z,34.86
2023-04-19T10:11:39.195Z,35.44
2023-04-19T10:14:08.138Z,35.67
2023-04-19T10:16:35.779Z,35.62
2023-04-19T10:19:10.675Z,35.55
2023-04-19T10:21:37.559Z,35.92
2023-04-19T10:24:05.016Z,35.95
2023-04-19T10:26:31.965Z,35.73
2023-04-19T10:28:59.154Z,35.89
2023-04-19T10:31:26.703Z,35.87
2023-04-19T10:33:53.771Z,36.31
2023-04-19T10:36:21.361Z,36.21
2023-04-19T10:38:49.584Z,36.06
2023-04-19T10:41:18.296Z,36.42
2023-04-19T10:44:09.838Z,36.21
2023-04-19T10:46:38.649Z,35.86
2023-04-19T10:49:06.010Z,35.43
2023-04-19T10:51:37.046Z,34.95
2023-04-19T10:54:05.207Z,35.20
2023-04-19T10:56:34.925Z,34.89
2023-04-19T10:59:08.259Z,34.99
2023-04-19T11:01:40.045Z,34.64
2023-04-19T11:04:07.751Z,34.67
2023-04-19T11:06:34.843Z,34.13
2023-04-19T11:09:03.352Z,33.39
2023-04-19T11:11:30.081Z,33.50
2023-04-19T11:13:58.144Z,33.29
2023-04-19T11:16:38.307Z,33.03
2023-04-19T11:19:18.939Z,33.47
2023-04-19T11:21:46.654Z,33.48
2023-04-19T11:24:13.514Z,33.17
2023-04-19T11:26:40.449Z,32.99
2023-04-19T11:29:07.285Z,33.51
2023-04-19T11:31:34.157Z,33.69
2023-04-19T11:34:01.319Z,33.17
2023-04-19T11:36:28.442Z,33.20
2023-04-19T11:38:55.249Z,33.52
2023-04-19T11:41:22.580Z,33.57
2023-04-19T11:43:49.329Z,33.03
2023-04-19T11:46:16.298Z,33.44
2023-04-19T11:48:53.542Z,32.60
2023-04-19T11:51:20.630Z,33.07
2023-04-19T11:53:47.463Z,32.97
2023-04-19T11:56:15.658Z,32.49
2023-04-19T11:58:45.146Z,32.43
2023-04-19T12:01:13.720Z,31.98
2023-04-19T12:03:47.496Z,31.23
2023-04-19T12:06:33.499Z,31.39
2023-04-19T12:09:00.386Z,31.38
2023-04-19T12:11:45.527Z,30.69
2023-04-19T12:14:13.856Z,30.41
2023-04-19T12:16:41.125Z,30.42
2023-04-19T12:19:18.659Z,29.90
2023-04-19T12:21:46.272Z,29.83
2023-04-19T12:24:15.448Z,29.23
2023-04-19T12:26:56.352Z,28.85
2023-04-19T12:29:23.288Z,28.57
2023-04-19T12:31:50.143Z,28.04
2023-04-19T12:34:17.083Z,27.82
2023-04-19T12:36:43.801Z,27.21
2023-04-19T12:39:10.574Z,26.97
2023-04-19T12:41:37.350Z,26.44
2023-04-19T12:44:04.211Z,26.78
2023-04-19T12:46:31.104Z,25.91
2023-04-19T12:48:58.069Z,25.49
2023-04-19T12:51:24.871Z,25.50
2023-04-19T12:53:52.433Z,25.60
2023-04-19T12:56:19.380Z,25.04
2023-04-19T12:58:46.689Z,24.91
2023-04-19T13:01:13.628Z,24.54
2023-04-19T13:03:40.795Z,24.42
2023-04-19T13:06:07.829Z,24.38
2023-04-19T13:08:44.804Z,24.33
2023-04-19T13:11:13.692Z,24.83
2023-04-19T13:13:40.436Z,26.14
2023-04-19T13:16:08.079Z,26.94
2023-04-19T13:18:35.367Z,27.67
2023-04-19T13:21:02.125Z,29.68
2023-04-19T13:23:28.865Z,30.54
2023-04-19T13:25:55.972Z,31.41
2023-04-19T13:28:22.763Z,32.33
2023-04-19T13:30:49.529Z,33.13
2023-04-19T13:33:16.494Z,33.48
2023-04-19T13:35:45.096Z,34.31
2023-04-19T13:38:11.901Z,34.92
2023-04-19T13:40:38.710Z,35.86
2023-04-19T13:43:05.464Z,36.25
2023-04-19T13:45:32.685Z,37.32
2023-04-19T13:47:59.465Z,37.94
2023-04-19T13:50:26.289Z,38.26
2023-04-19T13:52:53.224Z,38.81
2023-04-19T13:55:20.089Z,39.31
2023-04-19T13:57:46.836Z,39.21
2023-04-19T14:00:14.332Z,39.63
2023-04-19T14:02:42.339Z,40.23
2023-04-19T14:05:09.700Z,40.57
2023-04-19T14:07:37.166Z,40.98
2023-04-19T14:10:04.220Z,41.16
2023-04-19T14:12:31.112Z,41.50
2023-04-19T14:14:57.917Z,41.90
2023-04-19T14:17:24.861Z,42.08
2023-04-19T14:19:51.621Z,42.24
2023-04-19T14:22:18.512Z,42.18
2023-04-19T14:24:46.440Z,42.67
2023-04-19T14:27:13.286Z,42.90
2023-04-19T14:29:40.158Z,42.92
2023-04-19T14:32:21.315Z,42.79
2023-04-19T14:34:51.594Z,42.69
2023-04-19T14:37:18.922Z,43.02
2023-04-19T14:39:46.160Z,43.37
2023-04-19T14:42:13.094Z,43.16
2023-04-19T14:44:40.706Z,43.21
2023-04-19T14:47:07.805Z,43.18
2023-04-19T14:49:34.700Z,43.44
2023-04-19T14:52:01.529Z,43.46
2023-04-19T14:54:28.322Z,43.59
2023-04-19T14:56:55.301Z,44.20
2023-04-19T14:59:22.202Z,44.35
2023-04-19T15:01:49.122Z,44.33
2023-04-19T15:04:16.651Z,44.77
2023-04-19T15:06:43.595Z,44.43
2023-04-19T15:09:10.596Z,45.18
2023-04-19T15:11:37.431Z,45.34
2023-04-19T15:14:04.189Z,45.25
2023-04-19T15:16:31.660Z,45.54
2023-04-19T15:18:58.704Z,45.70
2023-04-19T15:21:25.502Z,45.65
2023-04-19T15:23:52.355Z,45.98
2023-04-19T15:26:19.153Z,45.81
2023-04-19T15:28:46.049Z,45.99
2023-04-19T15:31:13.060Z,45.82
2023-04-19T15:33:40.121Z,45.80
2023-04-19T15:36:07.164Z,45.99
2023-04-19T15:38:34.023Z,46.13
2023-04-19T15:41:04.064Z,46.14
2023-04-19T15:43:30.857Z,46.24
2023-04-19T15:45:57.706Z,46.08
2023-04-19T15:48:24.573Z,46.54
2023-04-19T15:50:51.376Z,46.41
2023-04-19T15:53:18.351Z,46.44
2023-04-19T15:55:47.049Z,46.44
2023-04-19T15:58:13.926Z,46.35
2023-04-19T16:00:41.035Z,46.41
2023-04-19T16:03:09.762Z,46.50
2023-04-19T16:05:36.621Z,46.32
2023-04-19T16:08:09.628Z,46.44
2023-04-19T16:10:36.394Z,46.80
2023-04-19T16:13:06.331Z,46.96
2023-04-19T16:15:34.119Z,47.04
2023-04-19T16:18:01.265Z,47.06
2023-04-19T16:20:28.290Z,47.28
2023-04-19T16:22:58.186Z,47.55
2023-04-19T16:25:24.984Z,47.41
2023-04-19T16:27:52.171Z,47.69
2023-04-19T16:30:18.972Z,47.70
2023-04-19T16:32:45.808Z,47.67
2023-04-19T16:35:12.713Z,47.85
2023-04-19T16:37:39.523Z,47.63
2023-04-19T16:40:10.872Z,47.74
2023-04-19T16:42:38.598Z,47.55
2023-04-19T16:45:06.478Z,47.94
2023-04-19T16:47:33.875Z,47.75
2023-04-19T16:50:01.141Z,47.37
2023-04-19T16:52:28.781Z,47.50
2023-04-19T16:54:55.629Z,47.37
2023-04-19T16:57:23.364Z,47.44
2023-04-19T16:59:50.195Z,47.62
2023-04-19T17:02:17.083Z,47.45
2023-04-19T17:04:44.289Z,47.50
2023-04-19T17:07:11.737Z,47.30
2023-04-19T17:09:38.526Z,47.39
2023-04-19T17:12:05.890Z,47.39
2023-04-19T17:14:34.163Z,47.45
2023-04-19T17:17:01.649Z,47.70
2023-04-19T17:19:28.527Z,47.65
2023-04-19T17:21:55.672Z,47.47
2023-04-19T17:24:22.576Z,47.75
2023-04-19T17:26:50.384Z,47.71
2023-04-19T17:29:17.371Z,47.51
2023-04-19T17:31:44.434Z,47.38
2023-04-19T17:34:11.409Z,47.53
2023-04-19T17:36:38.138Z,47.51
2023-04-19T17:39:06.841Z,47.46
2023-04-19T17:41:34.148Z,47.49
2023-04-19T17:44:00.895Z,47.28
2023-04-19T17:46:27.734Z,47.28
2023-04-19T17:48:55.590Z,47.61
2023-04-19T17:51:22.507Z,47.46
2023-04-19T17:53:49.454Z,47.70
2023-04-19T17:56:16.200Z,47.72
2023-04-19T17:58:42.912Z,47.66
2023-04-19T18:01:10.718Z,47.70
2023-04-19T18:03:38.414Z,47.95
2023-04-19T18:06:06.155Z,48.01
2023-04-19T18:08:33.048Z,48.08
2023-04-19T18:10:59.764Z,48.16
2023-04-19T18:13:26.713Z,48.44
2023-04-19T18:15:53.660Z,48.47
2023-04-19T18:18:20.501Z,48.75
2023-04-19T18:20:47.263Z,48.88
2023-04-19T18:23:14.155Z,49.20
2023-04-19T18:25:41.011Z,49.63
2023-04-19T18:28:07.770Z,49.63
2023-04-19T18:30:36.035Z,49.75
2023-04-19T18:33:02.863Z,50.25
2023-04-19T18:35:29.884Z,50.51
2023-04-19T18:37:56.814Z,50.37
2023-04-19T18:40:23.568Z,50.51
2023-04-19T18:42:50.569Z,51.20
2023-04-19T18:45:18.036Z,51.12
2023-04-19T18:47:44.864Z,51.55
2023-04-19T18:50:12.217Z,51.67
2023-04-19T18:52:39.065Z,51.93
2023-04-19T18:55:06.344Z,51.95
2023-04-19T18:57:34.418Z,52.00
2023-04-19T19:00:01.774Z,52.13
2023-04-19T19:02:28.663Z,52.41
2023-04-19T19:05:01.361Z,52.69
2023-04-19T19:10:01.742Z,52.66
2023-04-19T19:12:30.887Z,53.22
2023-04-19T19:14:57.614Z,52.92
2023-04-19T19:17:28.010Z,53.09
2023-04-19T19:19:55.253Z,53.07
2023-04-19T19:22:27.454Z,53.60
2023-04-19T19:24:55.370Z,53.54
2023-04-19T19:27:22.113Z,53.42
2023-04-19T19:29:48.952Z,53.57
2023-04-19T19:32:16.154Z,53.53
2023-04-19T19:34:54.744Z,53.44
2023-04-19T19:37:23.179Z,53.68
2023-04-19T19:39:52.240Z,53.89
2023-04-19T19:42:19.364Z,53.95
2023-04-19T19:44:46.282Z,54.26
2023-04-19T19:47:13.509Z,54.19
2023-04-19T19:49:55.213Z,54.51
2023-04-19T19:52:32.056Z,54.47
2023-04-19T19:54:59.691Z,54.51
2023-04-19T20:00:12.941Z,54.25
2023-04-19T20:02:55.016Z,54.65
2023-04-19T20:05:23.935Z,54.98
2023-04-19T20:10:20.656Z,54.43
2023-04-19T20:12:47.452Z,54.65
2023-04-19T20:15:14.375Z,54.80
2023-04-19T20:17:41.575Z,55.15
2023-04-19T20:20:09.306Z,55.22
2023-04-19T20:22:36.286Z,55.60
2023-04-19T20:25:03.111Z,55.69
2023-04-19T20:27:29.953Z,55.49
2023-04-19T20:29:56.928Z,56.00
2023-04-19T20:32:23.970Z,55.93
2023-04-19T20:34:52.188Z,56.05
2023-04-19T20:37:19.103Z,56.07
2023-04-19T20:39:45.990Z,55.84
2023-04-19T20:42:12.805Z,56.27
2023-04-19T20:44:39.574Z,56.35
2023-04-19T20:47:06.414Z,56.16
2023-04-19T20:49:33.375Z,56.24
2023-04-19T20:52:00.160Z,56.29
2023-04-19T20:54:27.144Z,56.64
2023-04-19T20:56:54.254Z,56.70
2023-04-19T20:59:20.984Z,56.93
2023-04-19T21:01:47.936Z,56.75
2023-04-19T21:04:14.941Z,57.17
2023-04-19T21:06:41.868Z,56.99
2023-04-19T21:09:08.831Z,56.57
2023-04-19T21:11:35.624Z,56.79
2023-04-19T21:14:02.446Z,56.96
2023-04-19T21:16:29.277Z,56.79
2023-04-19T21:18:56.184Z,56.59
2023-04-19T21:21:23.007Z,57.08
2023-04-19T21:23:49.750Z,56.70
2023-04-19T21:26:16.597Z,56.57
2023-04-19T21:28:43.564Z,56.59
2023-04-19T21:31:10.359Z,56.88
2023-04-19T21:33:37.153Z,56.89
2023-04-19T21:36:04.383Z,56.60
2023-04-19T21:38:31.338Z,56.94
2023-04-19T21:40:58.057Z,57.03
2023-04-19T21:43:25.030Z,57.08
2023-04-19T21:45:51.751Z,56.85
2023-04-19T21:48:18.494Z,56.91
2023-04-19T21:50:45.451Z,57.32
2023-04-19T21:53:12.185Z,57.05
2023-04-19T21:55:38.984Z,57.18
2023-04-19T21:58:06.063Z,57.22
2023-04-19T22:00:32.868Z,57.27
2023-04-19T22:02:59.975Z,57.27
2023-04-19T22:05:27.032Z,57.08
2023-04-19T22:07:55.084Z,57.09
2023-04-19T22:10:22.750Z,57.35
2023-04-19T22:12:57.904Z,56.88
2023-04-19T22:15:26.055Z,57.29
2023-04-19T22:17:53.116Z,57.06
2023-04-19T22:20:20.147Z,56.94
2023-04-19T22:22:46.960Z,57.37
2023-04-19T22:25:14.030Z,57.38
2023-04-19T22:27:40.799Z,57.07
2023-04-19T22:30:08.038Z,57.17
2023-04-19T22:32:35.027Z,56.92
2023-04-19T22:35:01.809Z,57.05
2023-04-19T22:37:28.648Z,57.10
2023-04-19T22:39:55.532Z,57.15
2023-04-19T22:42:22.342Z,57.17
2023-04-19T22:44:49.095Z,57.13
2023-04-19T22:47:16.644Z,56.98
2023-04-19T22:49:43.636Z,56.74
2023-04-19T22:52:11.500Z,56.62
2023-04-19T22:54:38.538Z,56.55
2023-04-19T22:57:05.325Z,56.08
2023-04-19T22:59:32.090Z,55.99
2023-04-19T23:01:59.014Z,55.81
2023-04-19T23:04:25.843Z,56.21
2023-04-19T23:06:53.868Z,56.12
2023-04-19T23:09:20.880Z,56.21
2023-04-19T23:11:48.996Z,56.18
2023-04-19T23:14:18.596Z,55.96
2023-04-19T23:16:47.167Z,55.84
2023-04-19T23:19:15.312Z,55.79
2023-04-19T23:21:42.180Z,55.67
2023-04-19T23:24:09.727Z,55.60
2023-04-19T23:26:36.560Z,55.51
2023-04-19T23:29:03.514Z,55.20
2023-04-19T23:31:30.536Z,55.56
2023-04-19T23:33:57.289Z,55.60
2023-04-19T23:36:24.087Z,55.68
2023-04-19T23:38:50.986Z,55.37
2023-04-19T23:41:17.929Z,55.64
2023-04-19T23:43:46.485Z,55.32
2023-04-19T23:46:13.514Z,55.15
2023-04-19T23:48:40.471Z,54.93
2023-04-19T23:51:07.221Z,54.90
2023-04-19T23:53:34.193Z,54.62
2023-04-19T23:56:01.053Z,54.88
2023-04-19T23:58:27.784Z,54.99
